createdAt,value
2023-06-30T00:00:28.114Z,22.98
2023-06-30T00:01:28.107Z,22.98
2023-06-30T00:02:28.136Z,22.95
2023-06-30T00:03:28.170Z,22.98
2023-06-30T00:04:28.266Z,22.98
2023-06-30T00:05:28.017Z,22.97
2023-06-30T00:06:28.017Z,22.97
2023-06-30T00:07:28.093Z,22.98
2023-06-30T00:08:28.028Z,23.00
2023-06-30T00:09:28.003Z,22.97
2023-06-30T00:10:27.986Z,23.00
2023-06-30T00:11:27.998Z,23.01
2023-06-30T00:12:27.971Z,23.01
2023-06-30T00:13:27.986Z,23.00
2023-06-30T00:14:27.937Z,22.98
2023-06-30T00:15:27.975Z,22.98
2023-06-30T00:16:28.164Z,22.97
2023-06-30T00:17:27.975Z,22.95
2023-06-30T00:18:27.893Z,22.94
2023-06-30T00:19:27.882Z,22.92
2023-06-30T00:20:27.867Z,22.92
2023-06-30T00:21:27.896Z,22.91
2023-06-30T00:22:27.882Z,22.91
2023-06-30T00:23:27.842Z,22.90
2023-06-30T00:24:27.844Z,22.88
2023-06-30T00:25:27.834Z,22.88
2023-06-30T00:26:27.805Z,22.88
2023-06-30T00:27:27.828Z,22.88
2023-06-30T00:28:27.786Z,22.86
2023-06-30T00:29:27.755Z,22.85
2023-06-30T00:30:27.762Z,22.82
2023-06-30T00:31:27.815Z,22.82
2023-06-30T00:32:27.791Z,22.79
2023-06-30T00:33:27.714Z,22.77
2023-06-30T00:34:27.704Z,22.77
2023-06-30T00:35:27.729Z,22.75
2023-06-30T00:36:27.703Z,22.73
2023-06-30T00:37:27.714Z,22.72
2023-06-30T00:38:27.715Z,22.68
2023-06-30T00:39:27.657Z,22.65
2023-06-30T00:40:27.648Z,22.62
2023-06-30T00:41:27.712Z,22.60
2023-06-30T00:42:27.653Z,22.57
2023-06-30T00:43:27.641Z,22.52
2023-06-30T00:44:27.607Z,22.51
2023-06-30T00:45:27.586Z,22.40
2023-06-30T00:46:27.604Z,22.36
2023-06-30T00:47:27.634Z,22.31
2023-06-30T00:48:27.582Z,22.25
2023-06-30T00:49:27.566Z,22.18
2023-06-30T00:50:27.560Z,22.10
2023-06-30T00:51:27.587Z,22.09
2023-06-30T00:52:27.569Z,22.05
2023-06-30T00:53:27.530Z,21.98
2023-06-30T00:54:27.501Z,21.96
2023-06-30T00:55:27.502Z,21.90
2023-06-30T00:56:27.494Z,21.82
2023-06-30T00:57:27.535Z,21.72
2023-06-30T00:58:27.462Z,21.69
2023-06-30T00:59:27.468Z,21.67
2023-06-30T01:00:27.432Z,21.58
2023-06-30T01:01:28.267Z,21.49
2023-06-30T01:02:27.534Z,21.42
2023-06-30T01:03:27.590Z,21.37
2023-06-30T01:04:27.815Z,21.35
2023-06-30T01:05:27.423Z,21.34
2023-06-30T01:06:27.400Z,21.31
2023-06-30T01:07:27.436Z,21.28
2023-06-30T01:08:27.360Z,21.29
2023-06-30T01:09:27.346Z,21.27
2023-06-30T01:10:27.338Z,21.24
2023-06-30T01:11:27.359Z,21.22
2023-06-30T01:12:27.332Z,21.17
2023-06-30T01:13:27.319Z,21.14
2023-06-30T01:14:27.280Z,21.09
2023-06-30T01:15:27.289Z,21.07
2023-06-30T01:16:27.328Z,21.04
2023-06-30T01:17:27.295Z,20.98
2023-06-30T01:18:27.256Z,20.91
2023-06-30T01:19:27.289Z,20.91
2023-06-30T01:20:27.264Z,20.85
2023-06-30T01:21:27.231Z,20.87
2023-06-30T01:22:27.243Z,20.80
2023-06-30T01:23:27.277Z,20.77
2023-06-30T01:24:27.197Z,20.73
2023-06-30T01:25:27.204Z,20.69
2023-06-30T01:26:27.234Z,20.62
2023-06-30T01:27:27.157Z,20.61
2023-06-30T01:28:27.181Z,20.58
2023-06-30T01:29:27.154Z,20.59
2023-06-30T01:30:27.163Z,20.55
2023-06-30T01:31:27.187Z,20.54
2023-06-30T01:32:27.153Z,20.52
2023-06-30T01:33:27.142Z,20.51
2023-06-30T01:34:27.102Z,20.51
2023-06-30T01:35:27.093Z,20.52
2023-06-30T01:36:27.065Z,20.50
2023-06-30T01:37:27.079Z,20.43
2023-06-30T01:38:27.075Z,20.43
2023-06-30T01:39:27.100Z,20.41
2023-06-30T01:40:27.032Z,20.42
2023-06-30T01:41:28.024Z,20.43
2023-06-30T01:42:27.054Z,20.41
2023-06-30T01:43:27.023Z,20.43
2023-06-30T01:44:26.979Z,20.42
2023-06-30T01:45:27.002Z,20.42
2023-06-30T01:46:26.990Z,20.41
2023-06-30T01:47:26.990Z,20.41
2023-06-30T01:48:26.966Z,20.41
2023-06-30T01:49:27.040Z,20.39
2023-06-30T01:50:27.003Z,20.36
2023-06-30T01:51:26.920Z,20.38
2023-06-30T01:52:26.901Z,20.33
2023-06-30T01:53:26.904Z,20.32
2023-06-30T01:54:26.876Z,20.32
2023-06-30T01:55:26.861Z,20.29
2023-06-30T01:56:26.912Z,20.28
2023-06-30T01:57:26.877Z,20.28
2023-06-30T01:58:26.864Z,20.24
2023-06-30T01:59:26.828Z,20.26
2023-06-30T02:00:26.831Z,20.28
2023-06-30T02:01:26.900Z,20.29
2023-06-30T02:02:26.968Z,20.24
2023-06-30T02:03:26.909Z,20.21
2023-06-30T02:04:26.851Z,20.21
2023-06-30T02:05:26.847Z,20.17
2023-06-30T02:06:26.767Z,20.16
2023-06-30T02:07:26.880Z,20.14
2023-06-30T02:08:26.746Z,20.10
2023-06-30T02:09:38.869Z,20.13
2023-06-30T02:10:27.762Z,20.14
2023-06-30T02:11:26.736Z,20.17
2023-06-30T02:12:26.777Z,20.20
2023-06-30T02:13:26.628Z,20.20
2023-06-30T02:14:26.652Z,20.20
2023-06-30T02:15:26.620Z,20.18
2023-06-30T02:16:26.689Z,20.21
2023-06-30T02:17:26.824Z,20.18
2023-06-30T02:18:26.594Z,20.20
2023-06-30T02:19:26.621Z,20.18
2023-06-30T02:20:26.579Z,20.20
2023-06-30T02:21:26.800Z,20.16
2023-06-30T02:22:26.569Z,20.13
2023-06-30T02:23:26.537Z,20.13
2023-06-30T02:24:26.508Z,20.11
2023-06-30T02:25:26.551Z,20.11
2023-06-30T02:26:26.597Z,20.10
2023-06-30T02:27:26.557Z,20.06
2023-06-30T02:28:26.479Z,20.08
2023-06-30T02:29:26.622Z,20.10
2023-06-30T02:30:26.607Z,20.11
2023-06-30T02:31:26.621Z,20.06
2023-06-30T02:32:26.572Z,20.05
2023-06-30T02:33:26.445Z,20.06
2023-06-30T02:34:26.433Z,20.08
2023-06-30T02:35:26.440Z,20.06
2023-06-30T02:36:26.397Z,20.10
2023-06-30T02:37:26.369Z,20.11
2023-06-30T02:38:26.400Z,20.05
2023-06-30T02:39:26.371Z,20.03
2023-06-30T02:40:26.372Z,20.02
2023-06-30T02:41:26.323Z,20.06
2023-06-30T02:42:26.343Z,20.06
2023-06-30T02:43:26.341Z,20.08
2023-06-30T02:44:26.322Z,20.06
2023-06-30T02:45:26.303Z,20.05
2023-06-30T02:46:26.396Z,20.05
2023-06-30T02:47:26.345Z,20.05
2023-06-30T02:48:26.325Z,20.01
2023-06-30T02:49:26.257Z,20.02
2023-06-30T02:50:26.267Z,19.98
2023-06-30T02:51:26.241Z,19.96
2023-06-30T02:52:26.241Z,19.98
2023-06-30T02:53:26.217Z,19.99
2023-06-30T02:54:26.214Z,19.99
2023-06-30T02:55:26.187Z,20.01
2023-06-30T02:56:26.198Z,20.01
2023-06-30T02:57:26.175Z,20.01
2023-06-30T02:58:26.443Z,19.98
2023-06-30T02:59:26.154Z,19.95
2023-06-30T03:00:26.183Z,19.92
2023-06-30T03:01:26.189Z,19.94
2023-06-30T03:02:26.322Z,19.96
2023-06-30T03:03:26.180Z,19.99
2023-06-30T03:04:26.102Z,20.01
2023-06-30T03:05:26.062Z,20.05
2023-06-30T03:06:26.073Z,20.05
2023-06-30T03:07:26.124Z,20.05
2023-06-30T03:08:26.059Z,20.08
2023-06-30T03:09:26.052Z,20.08
2023-06-30T03:10:26.034Z,20.13
2023-06-30T03:11:26.060Z,20.13
2023-06-30T03:12:26.030Z,20.10
2023-06-30T03:13:26.014Z,20.10
2023-06-30T03:14:26.017Z,20.11
2023-06-30T03:15:25.977Z,20.14
2023-06-30T03:16:26.019Z,20.16
2023-06-30T03:17:26.006Z,20.16
2023-06-30T03:18:25.945Z,20.20
2023-06-30T03:19:25.936Z,20.18
2023-06-30T03:20:25.911Z,20.18
2023-06-30T03:21:25.958Z,20.17
2023-06-30T03:22:25.927Z,20.13
2023-06-30T03:23:25.882Z,20.16
2023-06-30T03:24:25.899Z,20.14
2023-06-30T03:25:25.860Z,20.14
2023-06-30T03:26:25.885Z,20.17
2023-06-30T03:27:25.856Z,20.21
2023-06-30T03:28:25.847Z,20.20
2023-06-30T03:29:25.829Z,20.18
2023-06-30T03:30:25.827Z,20.21
2023-06-30T03:31:25.926Z,20.24
2023-06-30T03:32:25.865Z,20.28
2023-06-30T03:33:25.805Z,20.33
2023-06-30T03:34:25.788Z,20.33
2023-06-30T03:35:25.759Z,20.33
2023-06-30T03:36:25.810Z,20.36
2023-06-30T03:37:25.756Z,20.42
2023-06-30T03:38:25.749Z,20.47
2023-06-30T03:39:25.743Z,20.50
2023-06-30T03:40:25.754Z,20.47
2023-06-30T03:41:25.709Z,20.42
2023-06-30T03:42:25.718Z,20.47
2023-06-30T03:43:25.714Z,20.47
2023-06-30T03:44:25.709Z,20.51
2023-06-30T03:45:25.705Z,20.55
2023-06-30T03:46:25.666Z,20.52
2023-06-30T03:47:25.690Z,20.50
2023-06-30T03:48:25.699Z,20.48
2023-06-30T03:49:25.610Z,20.48
2023-06-30T03:50:25.637Z,20.43
2023-06-30T03:51:25.620Z,20.42
2023-06-30T03:52:25.606Z,20.42
2023-06-30T03:53:25.553Z,20.47
2023-06-30T03:54:25.561Z,20.48
2023-06-30T03:55:25.596Z,20.51
2023-06-30T03:56:25.529Z,20.54
2023-06-30T03:57:25.556Z,20.57
2023-06-30T03:58:25.579Z,20.64
2023-06-30T03:59:25.529Z,20.66
2023-06-30T04:00:25.503Z,20.72
2023-06-30T04:01:25.510Z,20.74
2023-06-30T04:02:25.579Z,20.77
2023-06-30T04:03:27.691Z,20.82
2023-06-30T04:04:25.818Z,20.77
2023-06-30T04:05:25.489Z,20.73
2023-06-30T04:06:25.477Z,20.70
2023-06-30T04:07:25.567Z,20.72
2023-06-30T04:08:25.612Z,20.76
2023-06-30T04:09:25.444Z,20.76
2023-06-30T04:10:25.406Z,20.73
2023-06-30T04:11:25.392Z,20.70
2023-06-30T04:12:25.404Z,20.69
2023-06-30T04:13:25.380Z,20.69
2023-06-30T04:14:25.360Z,20.69
2023-06-30T04:15:25.384Z,20.67
2023-06-30T04:16:25.349Z,20.67
2023-06-30T04:17:25.366Z,20.67
2023-06-30T04:18:25.332Z,20.69
2023-06-30T04:19:25.344Z,20.73
2023-06-30T04:20:25.313Z,20.77
2023-06-30T04:21:25.323Z,20.85
2023-06-30T04:22:25.297Z,20.89
2023-06-30T04:23:25.265Z,20.89
2023-06-30T04:24:25.270Z,20.89
2023-06-30T04:25:25.282Z,20.89
2023-06-30T04:26:25.243Z,20.91
2023-06-30T04:27:25.215Z,20.88
2023-06-30T04:28:25.224Z,20.89
2023-06-30T04:29:25.305Z,20.91
2023-06-30T04:30:25.209Z,20.94
2023-06-30T04:31:25.207Z,21.01
2023-06-30T04:32:25.236Z,21.06
2023-06-30T04:33:25.195Z,21.06
2023-06-30T04:34:25.168Z,21.03
2023-06-30T04:35:25.175Z,21.07
2023-06-30T04:36:25.161Z,21.07
2023-06-30T04:37:25.162Z,21.10
2023-06-30T04:38:25.305Z,21.13
2023-06-30T04:39:25.127Z,21.16
2023-06-30T04:40:25.093Z,21.25
2023-06-30T04:41:25.092Z,21.22
2023-06-30T04:42:25.076Z,21.21
2023-06-30T04:43:25.114Z,21.21
2023-06-30T04:44:25.062Z,21.21
2023-06-30T04:45:25.085Z,21.27
2023-06-30T04:46:25.097Z,21.32
2023-06-30T04:47:25.105Z,21.40
2023-06-30T04:48:25.022Z,21.53
2023-06-30T04:49:24.992Z,21.68
2023-06-30T04:50:25.022Z,21.82
2023-06-30T04:51:24.984Z,21.91
2023-06-30T04:52:24.964Z,22.00
2023-06-30T04:53:24.970Z,22.06
2023-06-30T04:54:24.938Z,22.25
2023-06-30T04:55:25.000Z,22.46
2023-06-30T04:56:24.948Z,22.70
2023-06-30T04:57:24.967Z,22.70
2023-06-30T04:58:24.902Z,22.60
2023-06-30T04:59:24.944Z,22.77
2023-06-30T05:00:24.921Z,22.94
2023-06-30T05:01:24.957Z,22.98
2023-06-30T05:02:25.025Z,22.92
2023-06-30T05:03:24.891Z,22.97
2023-06-30T05:04:24.849Z,23.39
2023-06-30T05:05:24.850Z,23.79
2023-06-30T05:06:24.848Z,23.90
2023-06-30T05:07:24.849Z,23.80
2023-06-30T05:08:24.865Z,23.63
2023-06-30T05:09:24.785Z,23.61
2023-06-30T05:10:24.784Z,23.78
2023-06-30T05:11:24.799Z,24.02
2023-06-30T05:12:25.822Z,24.10
2023-06-30T05:13:24.755Z,24.00
2023-06-30T05:14:24.763Z,24.27
2023-06-30T05:15:24.744Z,24.62
2023-06-30T05:16:24.781Z,24.68
2023-06-30T05:17:24.991Z,24.85
2023-06-30T05:18:24.810Z,24.49
2023-06-30T05:19:24.707Z,24.47
2023-06-30T05:20:24.757Z,24.57
2023-06-30T05:21:24.674Z,24.67
2023-06-30T05:22:24.683Z,24.77
2023-06-30T05:23:24.665Z,24.76
2023-06-30T05:24:24.642Z,24.98
2023-06-30T05:25:24.953Z,25.30
2023-06-30T05:26:24.657Z,25.47
2023-06-30T05:27:24.608Z,25.79
2023-06-30T05:28:24.648Z,26.01
2023-06-30T05:29:24.639Z,26.32
2023-06-30T05:30:24.626Z,26.60
2023-06-30T05:31:24.639Z,26.72
2023-06-30T05:32:24.631Z,26.65
2023-06-30T05:33:24.563Z,26.77
2023-06-30T05:34:24.549Z,26.50
2023-06-30T05:35:24.559Z,26.20
2023-06-30T05:36:24.531Z,25.90
2023-06-30T05:37:24.521Z,25.85
2023-06-30T05:38:24.669Z,25.64
2023-06-30T05:39:24.509Z,25.72
2023-06-30T05:40:24.500Z,25.45
2023-06-30T05:41:24.536Z,25.18
2023-06-30T05:42:24.472Z,25.09
2023-06-30T05:43:24.480Z,24.91
2023-06-30T05:44:24.536Z,24.61
2023-06-30T05:45:24.514Z,24.16
2023-06-30T05:46:24.506Z,24.02
2023-06-30T05:47:24.459Z,24.09
2023-06-30T05:48:24.769Z,24.40
2023-06-30T05:49:24.376Z,24.45
2023-06-30T05:50:24.374Z,24.76
2023-06-30T05:51:24.357Z,24.91
2023-06-30T05:52:24.367Z,25.00
2023-06-30T05:53:25.104Z,25.42
2023-06-30T05:54:24.356Z,25.75
2023-06-30T05:55:24.341Z,25.79
2023-06-30T05:56:24.324Z,25.91
2023-06-30T05:57:24.333Z,26.26
2023-06-30T05:58:24.350Z,26.63
2023-06-30T05:59:24.317Z,27.14
2023-06-30T06:00:24.353Z,27.44
2023-06-30T06:01:24.323Z,27.43
2023-06-30T06:02:25.269Z,27.17
2023-06-30T06:03:24.388Z,26.91
2023-06-30T06:04:24.453Z,26.95
2023-06-30T06:05:24.461Z,27.17
2023-06-30T06:06:24.259Z,27.44
2023-06-30T06:07:24.288Z,27.69
2023-06-30T06:08:24.179Z,27.79
2023-06-30T06:09:24.245Z,27.75
2023-06-30T06:10:24.258Z,27.79
2023-06-30T06:11:24.199Z,27.84
2023-06-30T06:12:24.150Z,27.92
2023-06-30T06:13:24.206Z,27.78
2023-06-30T06:14:24.275Z,27.54
2023-06-30T06:15:24.161Z,27.41
2023-06-30T06:16:24.220Z,27.34
2023-06-30T06:17:24.194Z,27.22
2023-06-30T06:18:24.116Z,27.22
2023-06-30T06:19:24.127Z,27.21
2023-06-30T06:20:24.128Z,27.27
2023-06-30T06:21:24.080Z,27.28
2023-06-30T06:22:24.072Z,26.75
2023-06-30T06:23:24.201Z,26.23
2023-06-30T06:24:24.194Z,26.02
2023-06-30T06:25:24.085Z,26.10
2023-06-30T06:26:24.097Z,25.91
2023-06-30T06:27:24.053Z,25.57
2023-06-30T06:28:24.038Z,25.23
2023-06-30T06:29:24.047Z,24.88
2023-06-30T06:30:23.976Z,24.78
2023-06-30T06:31:24.116Z,24.62
2023-06-30T06:32:24.073Z,24.65
2023-06-30T06:33:23.983Z,24.64
2023-06-30T06:34:24.008Z,24.50
2023-06-30T06:35:24.024Z,24.21
2023-06-30T06:36:23.925Z,23.93
2023-06-30T06:37:23.907Z,23.94
2023-06-30T06:38:23.904Z,24.02
2023-06-30T06:39:24.075Z,24.06
2023-06-30T06:40:23.908Z,24.18
2023-06-30T06:41:23.927Z,24.32
2023-06-30T06:42:23.913Z,24.46
2023-06-30T06:43:23.866Z,24.62
2023-06-30T06:44:23.845Z,24.77
2023-06-30T06:45:23.873Z,24.93
2023-06-30T06:46:23.821Z,25.05
2023-06-30T06:47:23.844Z,24.91
2023-06-30T06:48:23.791Z,24.76
2023-06-30T06:49:23.853Z,24.76
2023-06-30T06:50:23.931Z,24.35
2023-06-30T06:51:24.579Z,24.25
2023-06-30T06:52:23.746Z,24.03
2023-06-30T06:53:23.758Z,23.90
2023-06-30T06:54:23.881Z,23.69
2023-06-30T06:55:23.805Z,23.38
2023-06-30T06:56:23.746Z,23.09
2023-06-30T06:57:23.756Z,22.97
2023-06-30T06:58:23.689Z,22.97
2023-06-30T06:59:23.880Z,23.01
2023-06-30T07:00:23.894Z,23.01
2023-06-30T07:01:23.727Z,22.98
2023-06-30T07:02:23.737Z,22.88
2023-06-30T07:03:23.714Z,22.92
2023-06-30T07:04:23.668Z,22.95
2023-06-30T07:05:23.620Z,22.98
2023-06-30T07:06:23.691Z,22.98
2023-06-30T07:07:23.666Z,23.00
2023-06-30T07:08:23.650Z,23.04
2023-06-30T07:09:23.741Z,22.98
2023-06-30T07:10:23.635Z,22.97
2023-06-30T07:11:23.611Z,22.98
2023-06-30T07:12:23.546Z,23.02
2023-06-30T07:13:23.576Z,22.98
2023-06-30T07:14:23.552Z,23.00
2023-06-30T07:15:23.538Z,22.95
2023-06-30T07:16:23.614Z,22.85
2023-06-30T07:17:23.623Z,22.79
2023-06-30T07:18:23.635Z,22.75
2023-06-30T07:19:23.637Z,22.72
2023-06-30T07:20:23.510Z,22.75
2023-06-30T07:21:23.513Z,22.62
2023-06-30T07:22:23.519Z,22.39
2023-06-30T07:23:26.704Z,22.28
2023-06-30T07:24:24.338Z,22.28
2023-06-30T07:25:23.453Z,22.30
2023-06-30T07:26:23.409Z,22.25
2023-06-30T07:27:23.472Z,22.25
2023-06-30T07:28:23.465Z,22.28
2023-06-30T07:29:23.431Z,22.35
2023-06-30T07:30:23.467Z,22.42
2023-06-30T07:31:23.389Z,22.42
2023-06-30T07:32:23.445Z,22.47
2023-06-30T07:33:23.373Z,22.49
2023-06-30T07:34:23.347Z,22.49
2023-06-30T07:35:23.443Z,22.55
2023-06-30T07:36:23.395Z,22.62
2023-06-30T07:37:23.320Z,22.65
2023-06-30T07:38:23.359Z,22.73
2023-06-30T07:39:23.285Z,22.67
2023-06-30T07:40:24.305Z,22.62
2023-06-30T07:41:23.289Z,22.61
2023-06-30T07:42:23.336Z,22.55
2023-06-30T07:43:23.276Z,22.58
2023-06-30T07:44:23.249Z,22.55
2023-06-30T07:45:23.278Z,22.58
2023-06-30T07:46:23.244Z,22.58
2023-06-30T07:47:23.366Z,22.47
2023-06-30T07:48:23.336Z,22.54
2023-06-30T07:49:23.300Z,22.55
2023-06-30T07:50:23.240Z,22.49
2023-06-30T07:51:23.195Z,22.39
2023-06-30T07:52:23.211Z,22.40
2023-06-30T07:53:23.193Z,22.40
2023-06-30T07:54:23.156Z,22.31
2023-06-30T07:55:23.197Z,22.35
2023-06-30T07:56:23.132Z,22.42
2023-06-30T07:57:23.068Z,22.42
2023-06-30T07:58:23.102Z,22.33
2023-06-30T07:59:23.095Z,22.31
2023-06-30T08:00:23.130Z,22.36
2023-06-30T08:01:23.141Z,22.31
2023-06-30T08:02:23.382Z,22.31
2023-06-30T08:03:23.269Z,22.39
2023-06-30T08:04:23.372Z,22.39
2023-06-30T08:05:23.193Z,22.31
2023-06-30T08:06:23.040Z,22.28
2023-06-30T08:07:49.538Z,22.24
2023-06-30T08:08:23.983Z,22.18
2023-06-30T08:09:24.389Z,22.15
2023-06-30T08:10:23.377Z,22.18
2023-06-30T08:11:23.229Z,22.15
2023-06-30T08:12:23.110Z,22.15
2023-06-30T08:13:23.133Z,22.15
2023-06-30T08:14:24.124Z,21.94
2023-06-30T08:15:23.256Z,21.91
2023-06-30T08:16:22.965Z,22.03
2023-06-30T08:17:30.954Z,22.05
2023-06-30T08:18:31.500Z,22.07
2023-06-30T08:19:47.033Z,22.12
2023-06-30T08:20:24.307Z,22.15
2023-06-30T08:21:22.913Z,22.09
2023-06-30T08:22:22.868Z,22.12
2023-06-30T08:23:22.859Z,22.22
2023-06-30T08:24:22.815Z,22.27
2023-06-30T08:25:22.805Z,22.28
2023-06-30T08:26:22.831Z,22.31
2023-06-30T08:27:22.900Z,22.31
2023-06-30T08:28:22.965Z,22.30
2023-06-30T08:29:22.786Z,22.22
2023-06-30T08:30:24.994Z,22.31
2023-06-30T08:31:22.813Z,22.45
2023-06-30T08:32:22.873Z,22.60
2023-06-30T08:33:35.125Z,22.70
2023-06-30T08:34:23.726Z,22.75
2023-06-30T08:35:22.681Z,22.67
2023-06-30T08:36:22.734Z,22.51
2023-06-30T08:37:22.690Z,22.54
2023-06-30T08:38:22.706Z,22.61
2023-06-30T08:39:22.658Z,22.73
2023-06-30T08:40:22.642Z,22.80
2023-06-30T08:41:22.660Z,22.90
2023-06-30T08:42:22.658Z,23.04
2023-06-30T08:43:22.660Z,23.10
2023-06-30T08:44:22.618Z,23.00
2023-06-30T08:45:22.758Z,22.91
2023-06-30T08:46:22.615Z,22.77
2023-06-30T08:47:22.645Z,22.68
2023-06-30T08:48:22.569Z,22.60
2023-06-30T08:49:22.548Z,22.57
2023-06-30T08:50:22.546Z,22.72
2023-06-30T08:51:22.653Z,22.73
2023-06-30T08:52:22.548Z,22.79
2023-06-30T08:53:22.504Z,22.97
2023-06-30T08:54:22.473Z,22.97
2023-06-30T08:55:22.515Z,23.09
2023-06-30T08:56:22.562Z,23.17
2023-06-30T08:57:22.485Z,23.16
2023-06-30T08:58:26.461Z,23.10
2023-06-30T08:59:22.450Z,23.33
2023-06-30T09:00:22.489Z,23.55
2023-06-30T09:01:22.500Z,23.72
2023-06-30T09:02:22.560Z,23.85
2023-06-30T09:03:22.547Z,23.98
2023-06-30T09:04:22.399Z,24.00
2023-06-30T09:05:22.483Z,23.98
2023-06-30T09:06:22.431Z,23.87
2023-06-30T09:07:22.853Z,23.85
2023-06-30T09:08:22.362Z,24.00
2023-06-30T09:09:22.329Z,24.21
2023-06-30T09:10:22.328Z,24.35
2023-06-30T09:11:22.390Z,24.21
2023-06-30T09:12:22.368Z,23.83
2023-06-30T09:13:22.282Z,23.50
2023-06-30T09:14:22.311Z,23.40
2023-06-30T09:15:22.341Z,23.23
2023-06-30T09:16:22.283Z,23.05
2023-06-30T09:17:22.293Z,23.01
2023-06-30T09:18:22.274Z,23.22
2023-06-30T09:19:22.323Z,23.42
2023-06-30T09:20:22.233Z,23.57
2023-06-30T09:21:25.433Z,23.73
2023-06-30T09:22:53.867Z,23.83
2023-06-30T09:23:23.237Z,23.87
2023-06-30T09:24:22.178Z,23.73
2023-06-30T09:25:22.330Z,23.66
2023-06-30T09:26:22.183Z,23.54
2023-06-30T09:27:22.169Z,23.54
2023-06-30T09:28:22.233Z,23.66
2023-06-30T09:29:22.168Z,23.61
2023-06-30T09:30:22.166Z,23.46
2023-06-30T09:31:22.117Z,23.28
2023-06-30T09:32:22.147Z,23.10
2023-06-30T09:33:22.162Z,23.01
2023-06-30T09:34:22.123Z,22.86
2023-06-30T09:35:22.176Z,22.79
2023-06-30T09:36:22.063Z,22.77
2023-06-30T09:37:22.063Z,22.86
2023-06-30T09:38:22.038Z,22.94
2023-06-30T09:39:22.067Z,22.94
2023-06-30T09:40:22.006Z,22.88
2023-06-30T09:41:22.069Z,22.86
2023-06-30T09:42:22.001Z,22.85
2023-06-30T09:43:22.007Z,22.83
2023-06-30T09:44:21.973Z,22.85
2023-06-30T09:45:21.961Z,22.86
2023-06-30T09:46:22.045Z,22.97
2023-06-30T09:47:21.977Z,23.07
2023-06-30T09:48:21.989Z,23.19
2023-06-30T09:49:21.954Z,23.35
2023-06-30T09:50:21.951Z,23.38
2023-06-30T09:51:21.904Z,23.40
2023-06-30T09:52:21.904Z,23.38
2023-06-30T09:53:21.991Z,23.17
2023-06-30T09:54:39.369Z,22.98
2023-06-30T09:55:22.870Z,22.97
2023-06-30T09:56:21.878Z,23.00
2023-06-30T09:57:21.865Z,23.07
2023-06-30T09:58:21.917Z,23.12
2023-06-30T09:59:21.863Z,23.17
2023-06-30T10:00:35.677Z,23.22
2023-06-30T10:01:22.826Z,23.20
2023-06-30T10:02:21.806Z,23.07
2023-06-30T10:03:22.085Z,23.09
2023-06-30T10:04:21.917Z,23.10
2023-06-30T10:05:21.742Z,23.19
2023-06-30T10:06:21.766Z,23.17
2023-06-30T10:07:21.784Z,23.16
2023-06-30T10:08:21.740Z,23.19
2023-06-30T10:09:21.692Z,23.13
2023-06-30T10:10:21.752Z,23.04
2023-06-30T10:11:21.706Z,22.90
2023-06-30T10:12:21.731Z,22.76
2023-06-30T10:13:21.763Z,22.72
2023-06-30T10:14:21.687Z,22.72
2023-06-30T10:15:21.719Z,22.62
2023-06-30T10:16:21.631Z,22.47
2023-06-30T10:17:21.734Z,22.40
2023-06-30T10:18:21.677Z,22.39
2023-06-30T10:19:21.672Z,22.37
2023-06-30T10:20:27.815Z,22.12
2023-06-30T10:21:22.629Z,21.98
2023-06-30T10:22:21.574Z,21.79
2023-06-30T10:23:21.834Z,21.64
2023-06-30T10:24:21.709Z,21.62
2023-06-30T10:25:21.531Z,21.62
2023-06-30T10:26:21.547Z,21.71
2023-06-30T10:27:21.533Z,21.80
2023-06-30T10:28:21.574Z,21.86
2023-06-30T10:29:21.522Z,21.74
2023-06-30T10:30:21.520Z,21.71
2023-06-30T10:31:21.487Z,21.64
2023-06-30T10:32:21.786Z,21.65
2023-06-30T10:33:21.491Z,21.67
2023-06-30T10:34:21.505Z,21.69
2023-06-30T10:35:21.466Z,21.80
2023-06-30T10:36:21.456Z,21.86
2023-06-30T10:37:21.440Z,21.98
2023-06-30T10:38:21.433Z,21.98
2023-06-30T10:39:21.444Z,21.77
2023-06-30T10:40:21.421Z,21.80
2023-06-30T10:41:21.420Z,21.94
2023-06-30T10:42:21.403Z,22.07
2023-06-30T10:43:21.353Z,22.07
2023-06-30T10:44:21.347Z,22.17
2023-06-30T10:45:21.412Z,22.33
2023-06-30T10:46:21.363Z,22.37
2023-06-30T10:47:21.336Z,22.35
2023-06-30T10:48:21.344Z,22.35
2023-06-30T10:49:21.286Z,22.28
2023-06-30T10:50:21.307Z,22.10
2023-06-30T10:51:21.295Z,22.05
2023-06-30T10:52:21.278Z,21.99
2023-06-30T10:53:21.338Z,21.92
2023-06-30T10:54:21.329Z,21.82
2023-06-30T10:55:22.264Z,21.79
2023-06-30T10:56:21.590Z,21.71
2023-06-30T10:57:21.330Z,21.72
2023-06-30T10:58:21.264Z,21.65
2023-06-30T10:59:21.202Z,21.50
2023-06-30T11:00:21.178Z,21.42
2023-06-30T11:01:21.220Z,21.31
2023-06-30T11:02:21.188Z,21.25
2023-06-30T11:03:21.341Z,21.16
2023-06-30T11:04:21.283Z,21.10
2023-06-30T11:05:21.144Z,20.98
2023-06-30T11:06:21.135Z,21.03
2023-06-30T11:07:21.287Z,20.99
2023-06-30T11:08:21.814Z,20.95
2023-06-30T11:09:21.172Z,20.98
2023-06-30T11:10:21.074Z,21.01
2023-06-30T11:11:21.093Z,21.06
2023-06-30T11:12:21.117Z,21.10
2023-06-30T11:13:21.106Z,21.09
2023-06-30T11:14:21.109Z,21.07
2023-06-30T11:15:21.043Z,21.06
2023-06-30T11:16:21.108Z,21.04
2023-06-30T11:17:21.136Z,21.07
2023-06-30T11:18:21.149Z,21.07
2023-06-30T11:19:21.087Z,21.07
2023-06-30T11:20:20.965Z,21.07
2023-06-30T11:21:20.993Z,21.01
2023-06-30T11:22:21.065Z,20.99
2023-06-30T11:23:21.027Z,21.04
2023-06-30T11:24:21.064Z,21.12
2023-06-30T11:25:20.936Z,21.17
2023-06-30T11:26:20.977Z,20.94
2023-06-30T11:27:20.952Z,20.87
2023-06-30T11:28:20.907Z,20.85
2023-06-30T11:29:20.925Z,20.79
2023-06-30T11:30:20.934Z,20.79
2023-06-30T11:31:20.908Z,20.91
2023-06-30T11:32:21.014Z,20.85
2023-06-30T11:33:20.835Z,20.82
2023-06-30T11:34:20.839Z,20.77
2023-06-30T11:35:20.852Z,20.74
2023-06-30T11:36:20.858Z,20.72
2023-06-30T11:37:20.850Z,20.73
2023-06-30T11:38:20.902Z,20.66
2023-06-30T11:39:20.772Z,20.69
2023-06-30T11:40:20.783Z,20.69
2023-06-30T11:41:21.223Z,20.69
2023-06-30T11:42:20.754Z,20.69
2023-06-30T11:43:20.803Z,20.76
2023-06-30T11:44:20.750Z,20.74
2023-06-30T11:45:20.741Z,20.64
2023-06-30T11:46:20.861Z,20.57
2023-06-30T11:47:20.825Z,20.57
2023-06-30T11:48:20.843Z,20.57
2023-06-30T11:49:20.733Z,20.66
2023-06-30T11:50:21.533Z,20.70
2023-06-30T11:51:20.665Z,20.72
2023-06-30T11:52:20.782Z,20.70
2023-06-30T11:53:20.655Z,20.82
2023-06-30T11:54:20.697Z,20.84
2023-06-30T11:55:20.633Z,20.82
2023-06-30T11:56:20.641Z,20.73
2023-06-30T11:57:20.634Z,20.74
2023-06-30T11:58:20.615Z,20.89
2023-06-30T11:59:20.570Z,21.12
2023-06-30T12:00:20.659Z,21.37
2023-06-30T12:01:20.621Z,21.47
2023-06-30T12:02:20.613Z,21.59
2023-06-30T12:03:20.633Z,21.53
2023-06-30T12:04:20.816Z,21.47
2023-06-30T12:05:20.563Z,21.59
2023-06-30T12:06:20.544Z,21.52
2023-06-30T12:07:20.547Z,21.49
2023-06-30T12:08:20.598Z,21.50
2023-06-30T12:09:20.466Z,21.67
2023-06-30T12:10:20.470Z,21.71
2023-06-30T12:11:20.470Z,21.64
2023-06-30T12:12:20.441Z,21.59
2023-06-30T12:13:20.444Z,21.52
2023-06-30T12:14:20.418Z,21.46
2023-06-30T12:15:20.477Z,21.29
2023-06-30T12:16:20.456Z,21.32
2023-06-30T12:17:20.440Z,21.38
2023-06-30T12:18:20.410Z,21.38
2023-06-30T12:19:20.360Z,21.31
2023-06-30T12:20:20.524Z,21.21
2023-06-30T12:21:20.491Z,21.10
2023-06-30T12:22:20.480Z,21.13
2023-06-30T12:23:20.328Z,21.03
2023-06-30T12:24:20.329Z,20.94
2023-06-30T12:25:20.407Z,20.80
2023-06-30T12:26:20.330Z,20.72
2023-06-30T12:27:20.342Z,20.55
2023-06-30T12:28:20.275Z,20.51
2023-06-30T12:29:20.346Z,20.41
2023-06-30T12:30:20.264Z,20.32
2023-06-30T12:31:20.291Z,20.32
2023-06-30T12:32:20.340Z,20.31
2023-06-30T12:33:20.285Z,20.38
2023-06-30T12:34:20.251Z,20.38
2023-06-30T12:35:20.188Z,20.43
2023-06-30T12:36:20.157Z,20.41
2023-06-30T12:37:20.240Z,20.54
2023-06-30T12:38:20.346Z,20.55
2023-06-30T12:39:20.196Z,20.59
2023-06-30T12:40:20.140Z,20.57
2023-06-30T12:41:20.151Z,20.67
2023-06-30T12:42:20.158Z,20.66
2023-06-30T12:43:20.150Z,20.58
2023-06-30T12:44:20.337Z,20.51
2023-06-30T12:45:20.111Z,20.51
2023-06-30T12:46:20.115Z,20.52
2023-06-30T12:47:20.086Z,20.47
2023-06-30T12:48:20.093Z,20.36
2023-06-30T12:49:20.063Z,20.26
2023-06-30T12:50:20.152Z,20.29
2023-06-30T12:51:20.062Z,20.32
2023-06-30T12:52:20.049Z,20.35